sensor_id;sensor_type;location;lat;lon;timestamp;temperature;humidity
15355;DHT22;7777;52.254;9.618;2024-03-02T00:00:26;9.00;99.90
15355;DHT22;7777;52.254;9.618;2024-03-02T00:02:52;9.00;99.90
15355;DHT22;7777;52.254;9.618;2024-03-02T00:05:19;9.00;99.90
15355;DHT22;7777;52.254;9.618;2024-03-02T00:07:54;9.00;99.90
15355;DHT22;7777;52.254;9.618;2024-03-02T00:10:25;9.00;99.90
15355;DHT22;7777;52.254;9.618;2024-03-02T00:12:57;9.00;99.90
15355;DHT22;7777;52.254;9.618;2024-03-02T00:15:48;9.00;99.90
15355;DHT22;7777;52.254;9.618;2024-03-02T00:18:32;9.00;99.90
15355;DHT22;7777;52.254;9.618;2024-03-02T00:21:00;9.00;99.90
15355;DHT22;7777;52.254;9.618;2024-03-02T00:23:32;9.00;99.90
15355;DHT22;7777;52.254;9.618;2024-03-02T00:25:58;8.90;99.90
15355;DHT22;7777;52.254;9.618;2024-03-02T00:28:25;9.00;99.90
15355;DHT22;7777;52.254;9.618;2024-03-02T00:33:26;9.00;99.90
15355;DHT22;7777;52.254;9.618;2024-03-02T00:35:54;8.90;99.90
15355;DHT22;7777;52.254;9.618;2024-03-02T00:38:20;9.00;99.90
15355;DHT22;7777;52.254;9.618;2024-03-02T00:40:46;8.90;99.90
15355;DHT22;7777;52.254;9.618;2024-03-02T00:43:42;8.90;99.90
15355;DHT22;7777;52.254;9.618;2024-03-02T00:46:16;9.00;99.90
15355;DHT22;7777;52.254;9.618;2024-03-02T00:48:55;8.90;99.90
15355;DHT22;7777;52.254;9.618;2024-03-02T00:51:25;8.90;99.90
15355;DHT22;7777;52.254;9.618;2024-03-02T00:53:53;8.90;99.90
15355;DHT22;7777;52.254;9.618;2024-03-02T00:56:22;9.00;99.90
15355;DHT22;7777;52.254;9.618;2024-03-02T00:58:50;9.00;99.90
15355;DHT22;7777;52.254;9.618;2024-03-02T01:01:16;9.00;99.90
15355;DHT22;7777;52.254;9.618;2024-03-02T01:03:43;9.00;99.90
15355;DHT22;7777;52.254;9.618;2024-03-02T01:06:08;9.00;99.90
15355;DHT22;7777;52.254;9.618;2024-03-02T01:08:35;9.00;99.90
15355;DHT22;7777;52.254;9.618;2024-03-02T01:11:02;9.00;99.90
15355;DHT22;7777;52.254;9.618;2024-03-02T01:13:28;9.00;99.90
15355;DHT22;7777;52.254;9.618;2024-03-02T01:15:54;9.00;99.90
15355;DHT22;7777;52.254;9.618;2024-03-02T01:18:20;9.00;99.90
15355;DHT22;7777;52.254;9.618;2024-03-02T01:20:47;9.00;99.90
15355;DHT22;7777;52.254;9.618;2024-03-02T01:23:13;9.00;99.90
15355;DHT22;7777;52.254;9.618;2024-03-02T01:25:40;9.00;99.90
15355;DHT22;7777;52.254;9.618;2024-03-02T01:28:06;9.00;99.90
15355;DHT22;7777;52.254;9.618;2024-03-02T01:30:32;9.00;99.90
15355;DHT22;7777;52.254;9.618;2024-03-02T01:32:58;9.00;99.90
15355;DHT22;7777;52.254;9.618;2024-03-02T01:35:25;9.00;99.90
15355;DHT22;7777;52.254;9.618;2024-03-02T01:37:52;9.00;99.90
15355;DHT22;7777;52.254;9.618;2024-03-02T01:40:17;9.00;99.90
15355;DHT22;7777;52.254;9.618;2024-03-02T01:42:43;9.00;99.90
15355;DHT22;7777;52.254;9.618;2024-03-02T01:45:09;9.00;99.90
15355;DHT22;7777;52.254;9.618;2024-03-02T01:47:35;9.00;99.90
15355;DHT22;7777;52.254;9.618;2024-03-02T01:50:01;9.00;99.90
15355;DHT22;7777;52.254;9.618;2024-03-02T01:52:27;9.00;99.90
15355;DHT22;7777;52.254;9.618;2024-03-02T01:54:53;9.00;99.90
15355;DHT22;7777;52.254;9.618;2024-03-02T01:57:20;9.00;99.90
15355;DHT22;7777;52.254;9.618;2024-03-02T01:59:47;9.00;99.90
15355;DHT22;7777;52.254;9.618;2024-03-02T02:02:16;9.00;99.90
15355;DHT22;7777;52.254;9.618;2024-03-02T02:04:42;9.00;99.90
15355;DHT22;7777;52.254;9.618;2024-03-02T02:07:09;9.00;99.90
15355;DHT22;7777;52.254;9.618;2024-03-02T02:09:35;9.00;99.90
15355;DHT22;7777;52.254;9.618;2024-03-02T02:12:01;9.00;99.90
15355;DHT22;7777;52.254;9.618;2024-03-02T02:14:28;9.00;99.90
15355;DHT22;7777;52.254;9.618;2024-03-02T02:16:54;9.00;99.90
15355;DHT22;7777;52.254;9.618;2024-03-02T02:19:20;9.00;99.90
15355;DHT22;7777;52.254;9.618;2024-03-02T02:21:47;9.00;99.90
15355;DHT22;7777;52.254;9.618;2024-03-02T02:24:13;9.00;99.90
15355;DHT22;7777;52.254;9.618;2024-03-02T02:26:39;8.90;99.90
15355;DHT22;7777;52.254;9.618;2024-03-02T02:29:05;9.00;99.90
15355;DHT22;7777;52.254;9.618;2024-03-02T02:31:42;9.00;99.90
15355;DHT22;7777;52.254;9.618;2024-03-02T02:34:08;8.90;99.90
15355;DHT22;7777;52.254;9.618;2024-03-02T02:36:36;8.90;99.90
15355;DHT22;7777;52.254;9.618;2024-03-02T02:39:04;8.90;99.90
15355;DHT22;7777;52.254;9.618;2024-03-02T02:41:30;8.90;99.90
15355;DHT22;7777;52.254;9.618;2024-03-02T02:43:56;8.90;99.90
15355;DHT22;7777;52.254;9.618;2024-03-02T02:46:22;8.90;99.90
15355;DHT22;7777;52.254;9.618;2024-03-02T02:48:47;8.90;99.90
15355;DHT22;7777;52.254;9.618;2024-03-02T02:51:13;8.90;99.90
15355;DHT22;7777;52.254;9.618;2024-03-02T02:53:40;8.90;99.90
15355;DHT22;7777;52.254;9.618;2024-03-02T02:56:06;8.90;99.90
15355;DHT22;7777;52.254;9.618;2024-03-02T02:58:32;8.80;99.90
15355;DHT22;7777;52.254;9.618;2024-03-02T03:00:58;8.80;99.90
15355;DHT22;7777;52.254;9.618;2024-03-02T03:03:23;8.80;99.90
15355;DHT22;7777;52.254;9.618;2024-03-02T03:05:49;8.80;99.90
15355;DHT22;7777;52.254;9.618;2024-03-02T03:08:16;8.80;99.90
15355;DHT22;7777;52.254;9.618;2024-03-02T03:10:42;8.70;99.90
15355;DHT22;7777;52.254;9.618;2024-03-02T03:13:08;8.70;99.90
15355;DHT22;7777;52.254;9.618;2024-03-02T03:15:37;8.70;99.90
15355;DHT22;7777;52.254;9.618;2024-03-02T03:18:04;8.70;99.90
15355;DHT22;7777;52.254;9.618;2024-03-02T03:20:30;8.60;99.90
15355;DHT22;7777;52.254;9.618;2024-03-02T03:23:00;8.60;99.90
15355;DHT22;7777;52.254;9.618;2024-03-02T03:25:26;8.60;99.90
15355;DHT22;7777;52.254;9.618;2024-03-02T03:27:52;8.60;99.90
15355;DHT22;7777;52.254;9.618;2024-03-02T03:30:18;8.50;99.90
15355;DHT22;7777;52.254;9.618;2024-03-02T03:32:44;8.50;99.90
15355;DHT22;7777;52.254;9.618;2024-03-02T03:35:09;8.50;99.90
15355;DHT22;7777;52.254;9.618;2024-03-02T03:37:37;8.50;99.90
15355;DHT22;7777;52.254;9.618;2024-03-02T03:40:03;8.50;99.90
15355;DHT22;7777;52.254;9.618;2024-03-02T03:42:38;8.50;99.90
15355;DHT22;7777;52.254;9.618;2024-03-02T03:45:05;8.40;99.90
15355;DHT22;7777;52.254;9.618;2024-03-02T03:47:32;8.40;99.90
15355;DHT22;7777;52.254;9.618;2024-03-02T03:49:58;8.40;99.90
15355;DHT22;7777;52.254;9.618;2024-03-02T03:52:24;8.40;99.90
15355;DHT22;7777;52.254;9.618;2024-03-02T03:54:50;8.40;99.90
15355;DHT22;7777;52.254;9.618;2024-03-02T03:57:16;8.30;99.90
15355;DHT22;7777;52.254;9.618;2024-03-02T03:59:42;8.40;99.90
15355;DHT22;7777;52.254;9.618;2024-03-02T04:02:08;8.40;99.90
15355;DHT22;7777;52.254;9.618;2024-03-02T04:04:35;8.30;99.90
15355;DHT22;7777;52.254;9.618;2024-03-02T04:07:01;8.30;99.90
15355;DHT22;7777;52.254;9.618;2024-03-02T04:09:27;8.30;99.90
15355;DHT22;7777;52.254;9.618;2024-03-02T04:11:53;8.30;99.90
15355;DHT22;7777;52.254;9.618;2024-03-02T04:14:19;8.30;99.90
15355;DHT22;7777;52.254;9.618;2024-03-02T04:16:45;8.30;99.90
15355;DHT22;7777;52.254;9.618;2024-03-02T04:19:10;8.20;99.90
15355;DHT22;7777;52.254;9.618;2024-03-02T04:21:36;8.20;99.90
15355;DHT22;7777;52.254;9.618;2024-03-02T04:24:02;8.20;99.90
15355;DHT22;7777;52.254;9.618;2024-03-02T04:26:28;8.20;99.90
15355;DHT22;7777;52.254;9.618;2024-03-02T04:28:54;8.20;99.90
15355;DHT22;7777;52.254;9.618;2024-03-02T04:31:20;8.10;99.90
15355;DHT22;7777;52.254;9.618;2024-03-02T04:33:46;8.10;99.90
15355;DHT22;7777;52.254;9.618;2024-03-02T04:36:12;8.10;99.90
15355;DHT22;7777;52.254;9.618;2024-03-02T04:38:38;8.10;99.90
15355;DHT22;7777;52.254;9.618;2024-03-02T04:41:07;8.00;99.90
15355;DHT22;7777;52.254;9.618;2024-03-02T04:43:33;8.00;99.90
15355;DHT22;7777;52.254;9.618;2024-03-02T04:46:00;8.00;99.90
15355;DHT22;7777;52.254;9.618;2024-03-02T04:48:26;7.90;99.90
15355;DHT22;7777;52.254;9.618;2024-03-02T04:50:52;7.90;99.90
15355;DHT22;7777;52.254;9.618;2024-03-02T04:53:18;7.90;99.90
15355;DHT22;7777;52.254;9.618;2024-03-02T04:55:44;7.80;99.90
15355;DHT22;7777;52.254;9.618;2024-03-02T04:58:10;7.80;99.90
15355;DHT22;7777;52.254;9.618;2024-03-02T05:00:35;7.80;99.90
15355;DHT22;7777;52.254;9.618;2024-03-02T05:03:02;7.70;99.90
15355;DHT22;7777;52.254;9.618;2024-03-02T05:05:28;7.70;99.90
15355;DHT22;7777;52.254;9.618;2024-03-02T05:07:54;7.70;99.90
15355;DHT22;7777;52.254;9.618;2024-03-02T05:10:20;7.60;99.90
15355;DHT22;7777;52.254;9.618;2024-03-02T05:12:46;7.60;99.90
15355;DHT22;7777;52.254;9.618;2024-03-02T05:15:13;7.60;99.90
15355;DHT22;7777;52.254;9.618;2024-03-02T05:17:41;7.60;99.90
15355;DHT22;7777;52.254;9.618;2024-03-02T05:20:10;7.60;99.90
15355;DHT22;7777;52.254;9.618;2024-03-02T05:22:38;7.60;99.90
15355;DHT22;7777;52.254;9.618;2024-03-02T05:25:04;7.60;99.90
15355;DHT22;7777;52.254;9.618;2024-03-02T05:27:32;7.60;99.90
15355;DHT22;7777;52.254;9.618;2024-03-02T05:30:01;7.60;99.90
15355;DHT22;7777;52.254;9.618;2024-03-02T05:32:27;7.60;99.90
15355;DHT22;7777;52.254;9.618;2024-03-02T05:34:53;7.60;99.90
15355;DHT22;7777;52.254;9.618;2024-03-02T05:37:18;7.60;99.90
15355;DHT22;7777;52.254;9.618;2024-03-02T05:39:45;7.60;99.90
15355;DHT22;7777;52.254;9.618;2024-03-02T05:42:12;7.60;99.90
15355;DHT22;7777;52.254;9.618;2024-03-02T05:44:38;7.50;99.90
15355;DHT22;7777;52.254;9.618;2024-03-02T05:47:05;7.50;99.90
15355;DHT22;7777;52.254;9.618;2024-03-02T05:49:34;7.50;99.90
15355;DHT22;7777;52.254;9.618;2024-03-02T05:52:00;7.50;99.90
15355;DHT22;7777;52.254;9.618;2024-03-02T05:54:26;7.40;99.90
15355;DHT22;7777;52.254;9.618;2024-03-02T05:56:51;7.40;99.90
15355;DHT22;7777;52.254;9.618;2024-03-02T05:59:17;7.40;99.90
15355;DHT22;7777;52.254;9.618;2024-03-02T06:01:47;7.40;99.90
15355;DHT22;7777;52.254;9.618;2024-03-02T06:04:14;7.40;99.90
15355;DHT22;7777;52.254;9.618;2024-03-02T06:06:40;7.40;99.90
15355;DHT22;7777;52.254;9.618;2024-03-02T06:09:07;7.40;99.90
15355;DHT22;7777;52.254;9.618;2024-03-02T06:11:40;7.40;99.90
15355;DHT22;7777;52.254;9.618;2024-03-02T06:14:07;7.40;99.90
15355;DHT22;7777;52.254;9.618;2024-03-02T06:16:33;7.40;99.90
15355;DHT22;7777;52.254;9.618;2024-03-02T06:18:59;7.30;99.90
15355;DHT22;7777;52.254;9.618;2024-03-02T06:21:26;7.30;99.90
15355;DHT22;7777;52.254;9.618;2024-03-02T06:23:53;7.20;99.90
15355;DHT22;7777;52.254;9.618;2024-03-02T06:26:19;7.20;99.90
15355;DHT22;7777;52.254;9.618;2024-03-02T06:28:45;7.20;99.90
15355;DHT22;7777;52.254;9.618;2024-03-02T06:31:11;7.20;99.90
15355;DHT22;7777;52.254;9.618;2024-03-02T06:33:37;7.20;99.90
15355;DHT22;7777;52.254;9.618;2024-03-02T06:36:03;7.20;99.90
15355;DHT22;7777;52.254;9.618;2024-03-02T06:38:29;7.20;99.90
15355;DHT22;7777;52.254;9.618;2024-03-02T06:40:57;7.20;99.90
15355;DHT22;7777;52.254;9.618;2024-03-02T06:43:23;7.20;99.90
15355;DHT22;7777;52.254;9.618;2024-03-02T06:45:50;7.20;99.90
15355;DHT22;7777;52.254;9.618;2024-03-02T06:48:17;7.20;99.90
15355;DHT22;7777;52.254;9.618;2024-03-02T06:50:48;7.20;99.90
15355;DHT22;7777;52.254;9.618;2024-03-02T06:53:15;7.20;99.90
15355;DHT22;7777;52.254;9.618;2024-03-02T06:55:45;7.20;99.90
15355;DHT22;7777;52.254;9.618;2024-03-02T06:58:13;7.10;99.90
15355;DHT22;7777;52.254;9.618;2024-03-02T07:00:40;7.20;99.90
15355;DHT22;7777;52.254;9.618;2024-03-02T07:03:06;7.10;99.90
15355;DHT22;7777;52.254;9.618;2024-03-02T07:05:32;7.20;99.90
15355;DHT22;7777;52.254;9.618;2024-03-02T07:07:58;7.20;99.90
15355;DHT22;7777;52.254;9.618;2024-03-02T07:10:24;7.20;99.90
15355;DHT22;7777;52.254;9.618;2024-03-02T07:12:50;7.20;99.90
15355;DHT22;7777;52.254;9.618;2024-03-02T07:15:16;7.20;99.90
15355;DHT22;7777;52.254;9.618;2024-03-02T07:18:08;7.20;99.90
15355;DHT22;7777;52.254;9.618;2024-03-02T07:20:34;7.20;99.90
15355;DHT22;7777;52.254;9.618;2024-03-02T07:22:59;7.30;99.90
15355;DHT22;7777;52.254;9.618;2024-03-02T07:25:25;7.30;99.90
15355;DHT22;7777;52.254;9.618;2024-03-02T07:27:51;7.30;99.90
15355;DHT22;7777;52.254;9.618;2024-03-02T07:30:18;7.30;99.90
15355;DHT22;7777;52.254;9.618;2024-03-02T07:32:43;7.30;99.90
15355;DHT22;7777;52.254;9.618;2024-03-02T07:35:12;7.40;99.90
15355;DHT22;7777;52.254;9.618;2024-03-02T07:37:39;7.40;99.90
15355;DHT22;7777;52.254;9.618;2024-03-02T07:40:05;7.50;99.90
15355;DHT22;7777;52.254;9.618;2024-03-02T07:42:37;7.50;99.90
15355;DHT22;7777;52.254;9.618;2024-03-02T07:45:04;7.60;99.90
15355;DHT22;7777;52.254;9.618;2024-03-02T07:47:32;7.60;99.90
15355;DHT22;7777;52.254;9.618;2024-03-02T07:50:02;7.70;99.90
15355;DHT22;7777;52.254;9.618;2024-03-02T07:52:29;7.70;99.90
15355;DHT22;7777;52.254;9.618;2024-03-02T07:54:56;7.80;99.90
15355;DHT22;7777;52.254;9.618;2024-03-02T07:57:22;7.90;99.90
15355;DHT22;7777;52.254;9.618;2024-03-02T07:59:48;8.00;99.90
15355;DHT22;7777;52.254;9.618;2024-03-02T08:02:14;8.10;99.90
15355;DHT22;7777;52.254;9.618;2024-03-02T08:04:40;8.10;99.90
15355;DHT22;7777;52.254;9.618;2024-03-02T08:07:06;8.20;99.90
15355;DHT22;7777;52.254;9.618;2024-03-02T08:09:33;8.30;99.90
15355;DHT22;7777;52.254;9.618;2024-03-02T08:11:59;8.40;99.90
15355;DHT22;7777;52.254;9.618;2024-03-02T08:14:25;8.50;99.90
15355;DHT22;7777;52.254;9.618;2024-03-02T08:16:51;8.60;99.90
15355;DHT22;7777;52.254;9.618;2024-03-02T08:19:17;8.70;99.90
15355;DHT22;7777;52.254;9.618;2024-03-02T08:21:43;8.80;99.90
15355;DHT22;7777;52.254;9.618;2024-03-02T08:24:09;8.90;99.90
15355;DHT22;7777;52.254;9.618;2024-03-02T08:26:35;9.00;99.90
15355;DHT22;7777;52.254;9.618;2024-03-02T08:29:00;9.10;99.90
15355;DHT22;7777;52.254;9.618;2024-03-02T08:31:30;9.10;99.90
15355;DHT22;7777;52.254;9.618;2024-03-02T08:33:56;9.20;99.90
15355;DHT22;7777;52.254;9.618;2024-03-02T08:36:23;9.30;99.90
15355;DHT22;7777;52.254;9.618;2024-03-02T08:38:52;9.40;99.90
15355;DHT22;7777;52.254;9.618;2024-03-02T08:41:18;9.50;99.90
15355;DHT22;7777;52.254;9.618;2024-03-02T08:43:44;9.50;99.90
15355;DHT22;7777;52.254;9.618;2024-03-02T08:46:10;9.60;99.90
15355;DHT22;7777;52.254;9.618;2024-03-02T08:48:35;9.70;99.90
15355;DHT22;7777;52.254;9.618;2024-03-02T08:51:01;9.80;99.90
15355;DHT22;7777;52.254;9.618;2024-03-02T08:53:30;9.80;99.90
15355;DHT22;7777;52.254;9.618;2024-03-02T08:55:56;9.90;99.90
15355;DHT22;7777;52.254;9.618;2024-03-02T08:58:21;9.90;99.90
15355;DHT22;7777;52.254;9.618;2024-03-02T09:00:47;10.00;99.90
15355;DHT22;7777;52.254;9.618;2024-03-02T09:03:13;10.00;99.90
15355;DHT22;7777;52.254;9.618;2024-03-02T09:05:40;10.00;99.90
15355;DHT22;7777;52.254;9.618;2024-03-02T09:08:06;10.10;99.90
15355;DHT22;7777;52.254;9.618;2024-03-02T09:10:33;10.10;99.90
15355;DHT22;7777;52.254;9.618;2024-03-02T09:12:58;10.10;99.90
15355;DHT22;7777;52.254;9.618;2024-03-02T09:15:25;10.10;99.90
15355;DHT22;7777;52.254;9.618;2024-03-02T09:17:51;10.20;99.90
15355;DHT22;7777;52.254;9.618;2024-03-02T09:20:16;10.20;99.90
15355;DHT22;7777;52.254;9.618;2024-03-02T09:22:42;10.20;99.90
15355;DHT22;7777;52.254;9.618;2024-03-02T09:25:08;10.20;99.90
15355;DHT22;7777;52.254;9.618;2024-03-02T09:27:36;10.20;99.90
15355;DHT22;7777;52.254;9.618;2024-03-02T09:30:07;10.20;99.90
15355;DHT22;7777;52.254;9.618;2024-03-02T09:32:34;10.20;99.90
15355;DHT22;7777;52.254;9.618;2024-03-02T09:35:00;10.30;99.90
15355;DHT22;7777;52.254;9.618;2024-03-02T09:37:26;10.30;99.90
15355;DHT22;7777;52.254;9.618;2024-03-02T09:39:52;10.30;99.90
15355;DHT22;7777;52.254;9.618;2024-03-02T09:42:18;10.30;99.90
15355;DHT22;7777;52.254;9.618;2024-03-02T09:44:44;10.30;99.90
15355;DHT22;7777;52.254;9.618;2024-03-02T09:47:09;10.30;99.90
15355;DHT22;7777;52.254;9.618;2024-03-02T09:49:37;10.30;99.90
15355;DHT22;7777;52.254;9.618;2024-03-02T09:52:05;10.40;99.90
15355;DHT22;7777;52.254;9.618;2024-03-02T09:54:31;10.40;99.90
15355;DHT22;7777;52.254;9.618;2024-03-02T09:56:57;10.40;99.90
15355;DHT22;7777;52.254;9.618;2024-03-02T09:59:22;10.40;99.90
15355;DHT22;7777;52.254;9.618;2024-03-02T10:01:59;10.40;99.90
15355;DHT22;7777;52.254;9.618;2024-03-02T10:04:29;10.50;99.90
15355;DHT22;7777;52.254;9.618;2024-03-02T10:07:14;10.50;99.90
15355;DHT22;7777;52.254;9.618;2024-03-02T10:09:42;10.60;99.90
15355;DHT22;7777;52.254;9.618;2024-03-02T10:12:10;10.60;99.90
15355;DHT22;7777;52.254;9.618;2024-03-02T10:14:38;10.70;99.90
15355;DHT22;7777;52.254;9.618;2024-03-02T10:17:13;10.70;99.90
15355;DHT22;7777;52.254;9.618;2024-03-02T10:19:39;10.80;99.90
15355;DHT22;7777;52.254;9.618;2024-03-02T10:22:07;10.90;99.90
15355;DHT22;7777;52.254;9.618;2024-03-02T10:24:39;11.00;99.90
15355;DHT22;7777;52.254;9.618;2024-03-02T10:27:15;11.10;99.90
15355;DHT22;7777;52.254;9.618;2024-03-02T10:29:42;11.20;99.90
15355;DHT22;7777;52.254;9.618;2024-03-02T10:32:11;11.30;99.90
15355;DHT22;7777;52.254;9.618;2024-03-02T10:34:41;11.30;99.90
15355;DHT22;7777;52.254;9.618;2024-03-02T10:37:08;11.50;99.90
15355;DHT22;7777;52.254;9.618;2024-03-02T10:39:37;11.50;99.90
15355;DHT22;7777;52.254;9.618;2024-03-02T10:42:06;11.60;99.90
15355;DHT22;7777;52.254;9.618;2024-03-02T10:44:32;11.70;99.90
15355;DHT22;7777;52.254;9.618;2024-03-02T10:47:03;11.70;99.90
15355;DHT22;7777;52.254;9.618;2024-03-02T10:49:31;11.80;99.90
15355;DHT22;7777;52.254;9.618;2024-03-02T10:52:00;11.90;99.90
15355;DHT22;7777;52.254;9.618;2024-03-02T10:54:27;12.00;99.90
15355;DHT22;7777;52.254;9.618;2024-03-02T10:57:01;12.10;99.90
15355;DHT22;7777;52.254;9.618;2024-03-02T10:59:33;12.10;99.90
15355;DHT22;7777;52.254;9.618;2024-03-02T11:02:00;12.20;99.90
15355;DHT22;7777;52.254;9.618;2024-03-02T11:04:28;12.20;99.90
15355;DHT22;7777;52.254;9.618;2024-03-02T11:07:02;12.30;99.90
15355;DHT22;7777;52.254;9.618;2024-03-02T11:09:33;12.30;99.90
15355;DHT22;7777;52.254;9.618;2024-03-02T11:12:09;12.40;99.90
15355;DHT22;7777;52.254;9.618;2024-03-02T11:14:42;12.40;99.90
15355;DHT22;7777;52.254;9.618;2024-03-02T11:17:09;12.40;99.90
15355;DHT22;7777;52.254;9.618;2024-03-02T11:19:40;12.40;99.90
15355;DHT22;7777;52.254;9.618;2024-03-02T11:22:07;12.40;99.90
15355;DHT22;7777;52.254;9.618;2024-03-02T11:24:34;12.40;99.90
15355;DHT22;7777;52.254;9.618;2024-03-02T11:27:01;12.50;99.90
15355;DHT22;7777;52.254;9.618;2024-03-02T11:32:13;12.50;99.90
15355;DHT22;7777;52.254;9.618;2024-03-02T11:34:42;12.50;99.90
15355;DHT22;7777;52.254;9.618;2024-03-02T11:37:12;12.50;99.90
15355;DHT22;7777;52.254;9.618;2024-03-02T11:39:40;12.50;99.90
15355;DHT22;7777;52.254;9.618;2024-03-02T11:42:07;12.50;99.90
15355;DHT22;7777;52.254;9.618;2024-03-02T11:44:35;12.50;99.90
15355;DHT22;7777;52.254;9.618;2024-03-02T11:47:06;12.50;99.90
15355;DHT22;7777;52.254;9.618;2024-03-02T11:49:49;12.50;99.90
15355;DHT22;7777;52.254;9.618;2024-03-02T11:52:18;12.50;99.90
15355;DHT22;7777;52.254;9.618;2024-03-02T11:54:45;12.50;99.90
15355;DHT22;7777;52.254;9.618;2024-03-02T11:57:19;12.50;99.90
15355;DHT22;7777;52.254;9.618;2024-03-02T11:59:48;12.60;99.90
15355;DHT22;7777;52.254;9.618;2024-03-02T12:02:20;12.60;99.90
15355;DHT22;7777;52.254;9.618;2024-03-02T12:04:48;12.60;99.90
15355;DHT22;7777;52.254;9.618;2024-03-02T12:07:23;12.70;99.90
15355;DHT22;7777;52.254;9.618;2024-03-02T12:09:59;12.70;99.90
15355;DHT22;7777;52.254;9.618;2024-03-02T12:12:26;12.70;99.90
15355;DHT22;7777;52.254;9.618;2024-03-02T12:14:53;12.80;99.90
15355;DHT22;7777;52.254;9.618;2024-03-02T12:17:21;12.80;99.90
15355;DHT22;7777;52.254;9.618;2024-03-02T12:19:48;12.90;99.90
15355;DHT22;7777;52.254;9.618;2024-03-02T12:22:14;13.00;99.90
15355;DHT22;7777;52.254;9.618;2024-03-02T12:24:41;13.00;99.90
15355;DHT22;7777;52.254;9.618;2024-03-02T12:27:07;13.10;99.90
15355;DHT22;7777;52.254;9.618;2024-03-02T12:29:34;13.20;99.90
15355;DHT22;7777;52.254;9.618;2024-03-02T12:32:00;13.30;99.90
15355;DHT22;7777;52.254;9.618;2024-03-02T12:34:28;13.40;99.90
15355;DHT22;7777;52.254;9.618;2024-03-02T12:36:53;13.40;99.90
15355;DHT22;7777;52.254;9.618;2024-03-02T12:39:19;13.40;99.90
15355;DHT22;7777;52.254;9.618;2024-03-02T12:41:47;13.50;99.90
15355;DHT22;7777;52.254;9.618;2024-03-02T12:44:17;13.60;99.90
15355;DHT22;7777;52.254;9.618;2024-03-02T12:46:45;13.60;99.90
15355;DHT22;7777;52.254;9.618;2024-03-02T12:49:13;13.70;99.90
15355;DHT22;7777;52.254;9.618;2024-03-02T12:51:43;13.80;99.90
15355;DHT22;7777;52.254;9.618;2024-03-02T12:54:12;13.90;99.90
15355;DHT22;7777;52.254;9.618;2024-03-02T12:56:38;13.90;99.90
15355;DHT22;7777;52.254;9.618;2024-03-02T12:59:04;14.00;99.90
15355;DHT22;7777;52.254;9.618;2024-03-02T13:01:30;14.00;99.90
15355;DHT22;7777;52.254;9.618;2024-03-02T13:03:58;14.10;99.90
15355;DHT22;7777;52.254;9.618;2024-03-02T13:06:25;14.10;99.90
15355;DHT22;7777;52.254;9.618;2024-03-02T13:08:54;14.10;99.90
15355;DHT22;7777;52.254;9.618;2024-03-02T13:11:21;14.20;99.90
15355;DHT22;7777;52.254;9.618;2024-03-02T13:13:50;14.20;99.90
15355;DHT22;7777;52.254;9.618;2024-03-02T13:16:16;14.20;99.90
15355;DHT22;7777;52.254;9.618;2024-03-02T13:18:45;14.30;99.90
15355;DHT22;7777;52.254;9.618;2024-03-02T13:21:10;14.30;99.90
15355;DHT22;7777;52.254;9.618;2024-03-02T13:23:36;14.40;99.90
15355;DHT22;7777;52.254;9.618;2024-03-02T13:26:02;14.40;99.90
15355;DHT22;7777;52.254;9.618;2024-03-02T13:28:28;14.50;99.90
15355;DHT22;7777;52.254;9.618;2024-03-02T13:30:54;14.50;99.90
15355;DHT22;7777;52.254;9.618;2024-03-02T13:33:21;14.50;99.90
15355;DHT22;7777;52.254;9.618;2024-03-02T13:35:50;14.60;99.90
15355;DHT22;7777;52.254;9.618;2024-03-02T13:38:19;14.50;99.90
15355;DHT22;7777;52.254;9.618;2024-03-02T13:40:46;14.60;99.90
15355;DHT22;7777;52.254;9.618;2024-03-02T13:43:17;14.60;99.90
15355;DHT22;7777;52.254;9.618;2024-03-02T13:45:44;14.60;99.90
15355;DHT22;7777;52.254;9.618;2024-03-02T13:48:10;14.50;99.90
15355;DHT22;7777;52.254;9.618;2024-03-02T13:50:35;14.50;99.90
15355;DHT22;7777;52.254;9.618;2024-03-02T13:53:01;14.50;99.90
15355;DHT22;7777;52.254;9.618;2024-03-02T13:55:28;14.40;99.90
15355;DHT22;7777;52.254;9.618;2024-03-02T13:57:54;14.40;99.90
15355;DHT22;7777;52.254;9.618;2024-03-02T14:00:21;14.40;99.90
15355;DHT22;7777;52.254;9.618;2024-03-02T14:02:47;14.40;99.90
15355;DHT22;7777;52.254;9.618;2024-03-02T14:05:15;14.40;99.90
15355;DHT22;7777;52.254;9.618;2024-03-02T14:07:41;14.40;99.90
15355;DHT22;7777;52.254;9.618;2024-03-02T14:10:09;14.40;99.90
15355;DHT22;7777;52.254;9.618;2024-03-02T14:12:35;14.40;99.90
15355;DHT22;7777;52.254;9.618;2024-03-02T14:15:01;14.40;99.90
15355;DHT22;7777;52.254;9.618;2024-03-02T14:17:28;14.40;99.90
15355;DHT22;7777;52.254;9.618;2024-03-02T14:19:54;14.40;99.90
15355;DHT22;7777;52.254;9.618;2024-03-02T14:22:20;14.40;99.90
15355;DHT22;7777;52.254;9.618;2024-03-02T14:24:46;14.40;99.90
15355;DHT22;7777;52.254;9.618;2024-03-02T14:27:13;14.50;99.90
15355;DHT22;7777;52.254;9.618;2024-03-02T14:29:39;14.50;99.90
15355;DHT22;7777;52.254;9.618;2024-03-02T14:32:06;14.60;99.90
15355;DHT22;7777;52.254;9.618;2024-03-02T14:34:32;14.60;99.90
15355;DHT22;7777;52.254;9.618;2024-03-02T14:36:58;14.70;99.90
15355;DHT22;7777;52.254;9.618;2024-03-02T14:39:26;14.80;99.90
15355;DHT22;7777;52.254;9.618;2024-03-02T14:41:52;14.80;99.90
15355;DHT22;7777;52.254;9.618;2024-03-02T14:44:18;14.90;99.90
15355;DHT22;7777;52.254;9.618;2024-03-02T14:46:46;14.90;99.90
15355;DHT22;7777;52.254;9.618;2024-03-02T14:49:13;14.90;99.90
15355;DHT22;7777;52.254;9.618;2024-03-02T14:51:39;15.00;99.90
15355;DHT22;7777;52.254;9.618;2024-03-02T14:54:05;15.00;99.90
15355;DHT22;7777;52.254;9.618;2024-03-02T14:56:31;15.00;99.90
15355;DHT22;7777;52.254;9.618;2024-03-02T14:58:56;15.00;99.90
15355;DHT22;7777;52.254;9.618;2024-03-02T15:01:22;14.90;99.90
15355;DHT22;7777;52.254;9.618;2024-03-02T15:03:50;14.90;99.90
15355;DHT22;7777;52.254;9.618;2024-03-02T15:06:20;14.90;99.90
15355;DHT22;7777;52.254;9.618;2024-03-02T15:08:46;14.80;99.90
15355;DHT22;7777;52.254;9.618;2024-03-02T15:11:12;14.80;99.90
15355;DHT22;7777;52.254;9.618;2024-03-02T15:13:40;14.80;99.90
15355;DHT22;7777;52.254;9.618;2024-03-02T15:16:06;14.70;99.90
15355;DHT22;7777;52.254;9.618;2024-03-02T15:18:32;14.70;99.90
15355;DHT22;7777;52.254;9.618;2024-03-02T15:20:58;14.60;99.90
15355;DHT22;7777;52.254;9.618;2024-03-02T15:23:25;14.60;99.90
15355;DHT22;7777;52.254;9.618;2024-03-02T15:25:51;14.60;99.90
15355;DHT22;7777;52.254;9.618;2024-03-02T15:28:16;14.60;99.90
15355;DHT22;7777;52.254;9.618;2024-03-02T15:30:42;14.50;99.90
15355;DHT22;7777;52.254;9.618;2024-03-02T15:33:09;14.50;99.90
15355;DHT22;7777;52.254;9.618;2024-03-02T15:35:35;14.50;99.90
15355;DHT22;7777;52.254;9.618;2024-03-02T15:38:01;14.40;99.90
15355;DHT22;7777;52.254;9.618;2024-03-02T15:40:27;14.40;99.90
15355;DHT22;7777;52.254;9.618;2024-03-02T15:42:53;14.40;99.90
15355;DHT22;7777;52.254;9.618;2024-03-02T15:45:19;14.30;99.90
15355;DHT22;7777;52.254;9.618;2024-03-02T15:47:45;14.30;99.90
15355;DHT22;7777;52.254;9.618;2024-03-02T15:50:11;14.30;99.90
15355;DHT22;7777;52.254;9.618;2024-03-02T15:52:38;14.20;99.90
15355;DHT22;7777;52.254;9.618;2024-03-02T15:55:04;14.20;99.90
15355;DHT22;7777;52.254;9.618;2024-03-02T15:57:32;14.20;99.90
15355;DHT22;7777;52.254;9.618;2024-03-02T15:59:58;14.10;99.90